Latest Weather Observations for Kilmore Gap

IDV60801

Issued at 6:02 pm EST Thursday 30 July 2015 (issued every 30 minutes, with the page automatically refreshed every 10 minutes)

About weather observations | Map of weather stations | Latest weather observations for VIC | Other Formats
Station Details ID: 088162 Name: KILMORE GAP Lat: -37.38 Lon: 144.97 Height: 527.8 m
Data from the previous 72 hours. | See also: Recent months at Kilmore Gap
Date/Time
EST
Temp
°C
App
Temp
°C
Dew
Point
Rel
Hum
%
Delta-T
°C
Wind Press
QNH
hPa
Press
MSL
hPa
Rain
since 9 am
mm
Dir
 
Spd
km/h
Gust
km/h
Spd
kts
Gust
kts
30/06:00pm 5.7 -6.1 4.7 93 0.4 N 56 72 30 39 1014.2 1015.2 0.2
30/05:30pm 6.2 -6.3 3.9 85 1.0 N 59 76 32 41 1013.7 - 0.0
30/05:08pm 6.3 -6.3 3.8 84 1.1 N 59 78 32 42 1012.9 - 0.0
30/05:00pm 6.3 -6.3 3.8 84 1.1 N 59 74 32 40 1013.0 - 0.0
30/04:34pm 6.8 -5.7 3.9 82 1.3 N 59 80 32 43 1013.3 - 0.0
30/04:30pm 6.8 -5.7 4.1 83 1.2 N 59 76 32 41 1013.4 - 0.0
30/04:00pm 7.0 -5.1 4.1 82 1.3 N 57 78 31 42 1013.5 - 0.0
30/03:33pm 7.2 -5.3 4.2 81 1.3 N 59 78 32 42 1013.4 - 0.0
30/03:30pm 7.3 -5.2 4.3 81 1.3 N 59 74 32 40 1013.3 - 0.0
30/03:00pm 7.5 -4.0 4.5 81 1.4 N 54 65 29 35 1014.6 1015.6 0.0
30/02:33pm 7.5 -4.9 4.5 81 1.4 N 59 78 32 42 1014.6 - 0.0
30/02:30pm 7.2 -5.6 4.3 82 1.3 N 61 78 33 42 1014.6 - 0.0
30/02:00pm 6.7 -6.7 3.5 80 1.4 N 63 83 34 45 1014.3 - 0.0
30/01:32pm 6.4 -7.8 3.4 81 1.3 N 67 89 36 48 1014.9 - 0.0
30/01:30pm 6.5 -7.7 3.3 80 1.4 N 67 89 36 48 1014.8 - 0.0
30/01:07pm 6.6 -6.4 3.6 81 1.3 N 61 80 33 43 1015.4 - 0.0
30/01:00pm 6.4 -6.2 3.6 82 1.2 N 59 80 32 43 1015.3 - 0.0
30/12:30pm 6.2 -6.8 3.4 82 1.2 N 61 80 33 43 1016.2 - 0.0
30/12:00pm 6.0 -8.1 3.5 84 1.1 N 67 85 36 46 1016.8 1017.8 0.0
30/11:50am 5.7 -7.7 3.4 85 1.0 N 63 82 34 44 1017.0 - 0.0
30/11:30am 5.4 -8.8 3.4 87 0.9 N 67 82 36 44 1017.2 - 0.0
30/11:00am 5.2 -7.8 3.7 90 0.6 N 61 80 33 43 1018.3 - 0.0
30/10:36am 5.3 -6.8 4.0 91 0.6 N 57 76 31 41 1019.1 - 0.0
30/10:30am 5.2 -7.8 3.7 90 0.6 N 61 78 33 42 1018.9 - 0.0
30/10:26am 5.2 -7.4 3.7 90 0.6 N 59 82 32 44 1018.7 - 0.0
30/10:00am 4.6 -6.9 4.2 97 0.2 N 54 72 29 39 1019.3 - 0.0
30/09:33am 4.6 -6.6 4.2 97 0.2 N 52 76 28 41 1019.4 - 0.0
30/09:30am 4.6 -5.8 4.3 98 0.1 N 48 65 26 35 1019.5 - 0.0
30/09:00am 3.8 -7.1 3.7 99 0.0 N 50 61 27 33 1019.5 1020.6 0.0
30/08:57am 3.9 -7.0 3.8 99 0.0 N 50 63 27 34 1019.6 - 0.0
30/08:30am 3.5 -8.2 3.4 99 0.0 N 54 70 29 38 1019.3 - 0.0
30/08:26am 3.5 -7.8 3.4 99 0.0 N 52 70 28 38 1019.2 - 0.0
30/08:00am 3.4 -7.6 3.1 98 0.1 N 50 65 27 35 1019.7 - 0.0
30/07:30am 3.5 -8.6 3.2 98 0.1 N 56 67 30 36 1019.8 - 0.0
30/07:21am 3.5 -7.5 3.2 98 0.1 N 50 63 27 34 1019.9 - 0.0
30/07:16am 3.5 -7.1 3.2 98 0.1 N 48 61 26 33 1020.1 - 0.0
30/07:00am 3.5 -6.1 3.2 98 0.1 N 43 52 23 28 1020.8 - 0.0
30/06:43am 3.4 -5.1 3.1 98 0.1 N 37 50 20 27 1021.2 - 0.0
30/06:33am 3.4 -5.1 3.1 98 0.1 N 37 44 20 24 1021.3 - 0.0
30/06:30am 3.3 -5.2 3.0 98 0.1 N 37 44 20 24 1021.4 - 0.0
30/06:00am 3.5 -4.2 3.2 98 0.1 N 33 43 18 23 1021.8 1022.9 0.0
30/05:30am 3.7 -6.5 3.4 98 0.1 N 46 57 25 31 1021.5 - 0.0
30/05:21am 3.7 -5.9 3.4 98 0.1 N 43 50 23 27 1021.6 - 0.0
30/05:19am 3.7 -5.9 3.4 98 0.1 N 43 50 23 27 1021.6 - 0.0
30/05:00am 3.7 -5.5 3.4 98 0.1 N 41 56 22 30 1021.9 - 0.0
30/04:46am 4.1 -5.6 3.8 98 0.1 N 44 54 24 29 1022.0 - 0.0
30/04:43am 4.2 -5.5 3.9 98 0.1 N 44 54 24 29 1021.9 - 0.0
30/04:30am 4.0 -5.2 3.7 98 0.1 N 41 54 22 29 1022.2 - 0.0
30/04:25am 3.9 -4.9 3.6 98 0.1 N 39 48 21 26 1022.4 - 0.0
30/04:00am 4.1 -3.9 3.8 98 0.1 N 35 44 19 24 1022.9 - 0.0
30/03:30am 4.1 -4.3 3.8 98 0.1 N 37 46 20 25 1022.8 - 0.0
30/03:00am 4.3 -3.1 4.0 98 0.1 N 32 39 17 21 1023.5 1024.6 0.0
30/02:30am 4.5 -3.0 4.2 98 0.1 N 33 39 18 21 1024.2 - 0.0
30/02:00am 4.1 -3.5 3.8 98 0.1 N 33 41 18 22 1024.3 - 0.0
30/01:39am 4.1 -3.9 3.8 98 0.1 N 35 46 19 25 1024.4 - 0.0
30/01:30am 4.2 -4.5 3.9 98 0.1 N 39 46 21 25 1024.1 - 0.0
30/01:15am 4.2 -4.9 3.9 98 0.1 N 41 48 22 26 1024.1 - 0.0
30/01:01am 4.2 -3.4 3.9 98 0.1 N 33 41 18 22 1024.3 - 0.0
30/01:00am 4.2 -3.4 3.9 98 0.1 N 33 41 18 22 1024.4 - 0.0
30/12:53am 4.3 -3.3 4.0 98 0.1 N 33 41 18 22 1024.7 - 0.0
30/12:30am 4.4 -3.0 4.1 98 0.1 N 32 37 17 20 1025.4 - 0.0
30/12:00am 4.6 -2.4 4.2 97 0.2 N 30 39 16 21 1025.7 1026.9 0.0
 
Date/Time
EST
Temp
°C
App
Temp
°C
Dew
Point
Rel
Hum
%
Delta-T
°C
Wind Press
QNH
hPa
Press
MSL
hPa
Rain
since 9 am
mm
Dir
 
Spd
km/h
Gust
km/h
Spd
kts
Gust
kts
29/11:30pm 4.7 -2.3 4.1 96 0.3 N 30 39 16 21 1026.0 - 0.0
29/11:00pm 4.8 -3.1 4.5 98 0.1 N 35 43 19 23 1026.0 - 0.0
29/10:30pm 4.9 -2.0 4.5 97 0.2 N 30 37 16 20 1026.5 - 0.0
29/10:00pm 5.4 -1.5 4.7 95 0.3 N 30 39 16 21 1026.8 - 0.0
29/09:30pm 5.5 -1.7 4.8 95 0.3 N 32 37 17 20 1026.9 - 0.0
29/09:00pm 5.3 -1.6 4.7 96 0.3 N 30 35 16 19 1026.8 1027.9 0.0
29/08:35pm 5.3 -0.8 4.9 97 0.2 N 26 33 14 18 1027.1 - 0.0
29/08:30pm 5.3 -1.2 4.7 96 0.3 N 28 33 15 18 1027.0 - 0.0
29/08:00pm 5.7 0.0 5.0 95 0.3 N 24 30 13 16 1027.6 - 0.0
29/07:30pm 5.7 0.0 5.0 95 0.3 N 24 30 13 16 1027.7 - 0.0
29/07:00pm 5.7 0.0 4.8 94 0.4 N 24 32 13 17 1027.4 - 0.0
29/06:58pm 5.7 -0.4 4.8 94 0.4 N 26 32 14 17 1027.4 - 0.0
29/06:30pm 5.5 -0.3 4.3 92 0.5 N 24 30 13 16 1027.5 - 0.0
29/06:00pm 5.6 -0.2 4.4 92 0.5 N 24 30 13 16 1027.2 1028.4 0.0
29/05:30pm 5.5 -0.3 4.3 92 0.5 N 24 30 13 16 1027.6 - 0.0
29/05:16pm 5.6 -1.0 4.1 90 0.7 N 28 33 15 18 1027.3 - 0.0
29/05:00pm 5.9 -0.7 4.2 89 0.7 N 28 39 15 21 1027.6 - 0.0
29/04:30pm 6.1 0.0 4.9 92 0.5 N 26 32 14 17 1027.7 - 0.0
29/04:26pm 6.1 0.4 4.7 91 0.6 N 24 32 13 17 1027.7 - 0.0
29/04:00pm 6.5 0.2 4.0 84 1.1 N 26 33 14 18 1027.9 - 0.0
29/03:42pm 6.6 0.8 4.6 87 0.9 N 24 32 13 17 1028.1 - 0.0
29/03:30pm 6.5 0.4 4.7 88 0.8 N 26 35 14 19 1028.3 - 0.0
29/03:00pm 6.6 0.8 4.6 87 0.9 N 24 30 13 16 1028.4 1029.6 0.0
29/02:51pm 6.8 0.7 4.8 87 0.9 N 26 35 14 19 1028.4 - 0.0
29/02:30pm 7.2 0.6 4.0 80 1.4 N 28 37 15 20 1028.9 - 0.0
29/02:00pm 7.0 -0.1 3.3 77 1.6 N 30 37 16 20 1029.2 - 0.0
29/01:30pm 7.1 0.2 4.6 84 1.1 N 30 39 16 21 1029.3 - 0.0
29/01:28pm 7.0 -0.3 4.5 84 1.1 N 32 41 17 22 1029.3 - 0.0
29/01:00pm 6.8 -0.2 4.1 83 1.2 N 30 39 16 21 1029.5 - 0.0
29/12:30pm 7.1 0.7 5.3 88 0.8 N 28 37 15 20 1030.5 - 0.0
29/12:00pm 6.5 0.0 4.8 89 0.8 N 28 37 15 20 1031.3 1032.5 0.0
29/11:30am 6.1 0.0 4.6 90 0.7 N 26 39 14 21 1031.7 - 0.0
29/11:00am 6.1 -0.3 5.2 94 0.4 N 28 35 15 19 1031.8 - 0.0
29/10:45am 5.6 -0.5 4.6 93 0.4 N 26 32 14 17 1031.9 - 0.0
29/10:30am 5.6 -0.5 4.7 94 0.4 N 26 32 14 17 1032.1 - 0.0
29/10:00am 5.9 0.3 5.2 95 0.3 N 24 33 13 18 1032.4 - 0.0
29/09:30am 5.2 -0.7 4.0 92 0.5 N 24 30 13 16 1032.7 - 0.0
29/09:00am 5.4 -0.1 4.1 91 0.6 N 22 28 12 15 1032.5 1033.8 0.0
29/08:30am 5.2 0.1 4.0 92 0.5 N 20 24 11 13 1032.9 - 0.0
29/08:00am 4.3 -0.3 3.6 95 0.3 N 17 20 9 11 1032.5 - 0.0
29/07:30am 4.0 -0.3 3.1 94 0.4 N 15 19 8 10 1032.1 - 0.0
29/07:00am 4.7 0.8 3.4 91 0.6 N 13 15 7 8 1032.1 - 0.0
29/06:30am 4.8 0.8 3.0 88 0.8 N 13 15 7 8 1032.1 - 0.0
29/06:00am 5.5 2.0 3.3 86 0.9 N 11 13 6 7 1032.0 1033.3 0.0
29/05:30am 5.6 2.6 3.9 89 0.7 N 9 13 5 7 1031.9 - 0.0
29/05:00am 5.4 2.0 2.1 79 1.4 N 9 13 5 7 1031.7 - 0.0
29/04:30am 6.0 2.7 2.3 77 1.6 N 9 11 5 6 1032.0 - 0.0
29/04:00am 5.9 3.0 2.4 78 1.5 NNW 7 9 4 5 1032.0 - 0.0
29/03:30am 6.2 3.5 2.7 78 1.5 NW 6 7 3 4 1032.1 - 0.0
29/03:00am 6.4 3.7 2.5 76 1.6 WNW 6 7 3 4 1032.4 1033.7 0.0
29/02:30am 6.1 3.3 3.3 82 1.2 NW 7 11 4 6 1032.5 - 0.0
29/02:00am 6.4 3.1 2.7 77 1.6 N 9 11 5 6 1032.4 - 0.0
29/01:30am 6.3 3.2 3.5 82 1.2 N 9 11 5 6 1032.3 - 0.0
29/01:00am 7.0 4.2 2.3 72 2.0 NNW 6 9 3 5 1032.4 - 0.0
29/12:30am 7.5 4.7 2.2 69 2.3 N 6 9 3 5 1033.1 - 0.0
29/12:00am 7.5 4.5 2.2 69 2.2 WSW 7 11 4 6 1033.3 1034.5 0.0
 
Date/Time
EST
Temp
°C
App
Temp
°C
Dew
Point
Rel
Hum
%
Delta-T
°C
Wind Press
QNH
hPa
Press
MSL
hPa
Rain
since 9 am
mm
Dir
 
Spd
km/h
Gust
km/h
Spd
kts
Gust
kts
28/11:30pm 7.7 5.1 3.2 73 2.0 N 6 7 3 4 1033.2 - 0.0
28/11:00pm 7.3 5.0 3.0 74 1.9 NW 4 7 2 4 1033.2 - 0.0
28/10:30pm 7.1 4.7 4.2 82 1.3 WNW 6 15 3 8 1033.4 - 0.0
28/10:00pm 7.0 4.6 4.5 84 1.1 W 6 7 3 4 1033.7 - 0.0
28/09:30pm 6.9 5.4 5.1 88 0.8 SSE 2 6 1 3 1033.7 - 0.0
28/09:00pm 6.8 4.3 5.0 88 0.8 ESE 7 9 4 5 1033.6 1034.9 0.0
28/08:30pm 7.0 4.7 5.5 90 0.7 SE 7 9 4 5 1033.7 - 0.0
28/08:00pm 7.1 4.4 5.6 90 0.7 SE 9 11 5 6 1033.5 - 0.0
28/07:30pm 7.4 4.7 5.7 89 0.8 SSE 9 13 5 7 1033.6 - 0.0
28/07:00pm 7.7 5.4 5.5 86 1.0 SSE 7 9 4 5 1033.6 - 0.0
28/06:30pm 8.0 5.8 5.1 82 1.3 S 6 11 3 6 1033.4 - 0.0
28/06:00pm 8.6 6.2 4.4 75 1.9 SE 6 7 3 4 1033.2 1034.4 0.0
28/05:30pm 8.5 6.6 4.9 78 1.7 SSE 4 9 2 5 1033.1 - 0.0
28/05:00pm 8.8 7.6 4.8 76 1.8 CALM 0 0 0 0 1032.9 - 0.0
28/04:30pm 9.0 7.8 4.6 74 2.0 CALM 0 0 0 0 1032.8 - 0.0
28/04:00pm 9.2 8.0 4.8 74 2.0 CALM 0 0 0 0 1033.0 - 0.0
28/03:30pm 9.2 7.7 4.8 74 2.0 S 2 6 1 3 1032.8 - 0.0
28/03:00pm 9.4 6.8 4.4 71 2.3 SSW 7 9 4 5 1032.9 1034.1 0.0
28/02:30pm 9.3 6.8 4.5 72 2.2 SSW 7 11 4 6 1032.8 - 0.0
28/02:00pm 9.8 6.9 4.6 70 2.4 W 9 11 5 6 1033.0 - 0.0
28/01:30pm 9.9 7.0 4.7 70 2.4 SW 9 13 5 7 1033.2 - 0.0
28/01:00pm 10.0 7.8 5.2 72 2.2 SW 6 17 3 9 1033.4 - 0.0
28/12:30pm 8.8 5.4 4.0 72 2.2 SW 11 17 6 9 1033.7 - 0.0
28/12:00pm 8.5 4.5 4.9 78 1.6 SW 15 24 8 13 1034.0 1035.3 0.0
28/11:30am 8.8 4.6 5.9 82 1.4 SW 17 22 9 12 1034.5 - 0.0
28/11:22am 8.5 4.6 5.3 80 1.5 WSW 15 24 8 13 1034.7 - 0.0
28/11:00am 7.4 3.0 5.0 85 1.1 SW 17 28 9 15 1034.9 - 0.0
28/10:30am 7.6 3.8 5.6 87 0.9 SW 15 22 8 12 1035.0 - 0.0
28/10:22am 7.4 3.5 5.5 88 0.9 SW 15 22 8 12 1035.0 - 0.0
28/10:00am 6.9 3.3 5.2 89 0.8 SW 13 19 7 10 1034.8 - 0.0
28/09:30am 6.4 2.4 5.0 91 0.6 SW 15 22 8 12 1034.7 - 0.0
28/09:00am 5.9 2.3 4.9 93 0.4 WSW 13 17 7 9 1034.3 1035.6 0.0
28/08:30am 5.6 1.2 4.7 94 0.4 SW 17 24 9 13 1033.9 - 0.0
28/08:00am 5.2 1.1 4.5 95 0.3 WSW 15 20 8 11 1033.6 - 0.0
28/07:30am 5.4 1.7 4.5 94 0.4 WSW 13 17 7 9 1033.3 - 0.0
28/07:00am 5.6 2.0 4.9 95 0.3 WSW 13 19 7 10 1033.0 - 0.0
28/06:30am 5.5 1.9 4.9 96 0.3 WSW 13 15 7 8 1032.5 - 0.0
28/06:00am 5.5 1.9 4.8 95 0.3 WSW 13 17 7 9 1032.3 1033.6 0.0
28/05:30am 5.5 1.1 4.9 96 0.3 WSW 17 22 9 12 1031.9 - 0.0
28/05:00am 5.0 0.9 4.4 96 0.3 WSW 15 20 8 11 1031.7 - 0.0
28/04:51am 5.1 1.0 4.5 96 0.3 WSW 15 20 8 11 1031.6 - 0.0
28/04:30am 5.2 0.8 4.5 95 0.3 WSW 17 20 9 11 1031.5 - 0.0
28/04:00am 5.3 0.5 4.4 94 0.4 WSW 19 26 10 14 1031.4 - 0.0
28/03:57am 5.2 0.3 4.3 94 0.4 WSW 19 24 10 13 1031.4 - 0.0
28/03:30am 5.1 0.0 4.2 94 0.4 WSW 20 32 11 17 1031.3 - 0.0
28/03:00am 5.0 -0.5 4.1 94 0.4 W 22 28 12 15 1031.1 1032.3 0.0
28/02:30am 4.9 -0.2 3.9 93 0.4 W 20 24 11 13 1031.1 - 0.0
28/02:00am 5.1 0.0 3.9 92 0.5 WSW 20 26 11 14 1030.9 - 0.0
28/01:30am 5.0 -0.5 3.8 92 0.5 WSW 22 28 12 15 1030.5 - 0.0
28/01:00am 5.1 -0.1 3.8 91 0.6 WSW 20 26 11 14 1030.7 - 0.0
28/12:30am 5.2 -0.4 3.7 90 0.6 W 22 30 12 16 1030.7 - 0.0
28/12:00am 5.1 -0.4 3.8 91 0.6 W 22 26 12 14 1030.8 1032.0 0.0
 
Date/Time
EST
Temp
°C
App
Temp
°C
Dew
Point
Rel
Hum
%
Delta-T
°C
Wind Press
QNH
hPa
Press
MSL
hPa
Rain
since 9 am
mm
Dir
 
Spd
km/h
Gust
km/h
Spd
kts
Gust
kts
27/11:30pm 4.9 -0.7 3.6 91 0.6 W 22 28 12 15 1030.7 - 0.0
27/11:00pm 5.3 -0.6 3.8 90 0.7 W 24 30 13 16 1030.7 - 0.0
27/10:30pm 5.2 -0.4 3.7 90 0.6 W 22 32 12 17 1030.8 - 0.0
27/10:00pm 5.2 0.0 3.5 89 0.7 WSW 20 28 11 15 1030.9 - 0.0
27/09:30pm 5.2 -0.4 3.5 89 0.7 WSW 22 28 12 15 1030.8 - 0.0
27/09:00pm 5.0 -0.1 3.3 89 0.7 WSW 19 24 10 13 1030.7 1031.9 0.0
27/08:30pm 5.0 -0.3 3.2 88 0.8 W 20 22 11 12 1030.7 - 0.0
27/08:00pm 5.3 0.6 3.2 86 0.9 WSW 17 22 9 12 1030.7 - 0.0
27/07:30pm 5.5 1.2 3.3 86 0.9 WSW 15 20 8 11 1030.4 - 0.0
27/07:00pm 5.9 1.7 3.6 85 1.0 WSW 15 24 8 13 1029.9 - 0.0
27/06:30pm 6.1 1.4 3.3 82 1.2 SW 17 26 9 14 1029.8 - 0.0

Other Formats:

Comma delimited format used in spreadsheet applications
http://www.bom.gov.au/fwo/IDV60801/IDV60801.94860.axf

JavaScript Object Notation format (JSON) in row-major order
http://www.bom.gov.au/fwo/IDV60801/IDV60801.94860.json